Time;durP1;ratioP1;P1;durP2;ratioP2;P2;SDS_P1;SDS_P2;PMS_P1;PMS_P2;Temp;Humidity;BMP_temperature;BMP_pressure;BME280_temperature;BME280_humidity;BME280_pressure;Samples;Min_cycle;Max_cycle;Signal;HPM_P1;HPM_P2
2024/01/28 00:00:33;;;;;;;;;32.50;27.50;;;;;;;;5122996;27;61752;-75
2024/01/28 00:02:58;;;;;;;;;37.25;30.50;;;;;;;;5121237;27;64490;-75
2024/01/28 00:05:24;;;;;;;;;31.25;28.75;;;;;;;;5123478;27;61986;-76
2024/01/28 00:07:49;;;;;;;;;36.00;32.25;;;;;;;;5123129;27;61780;-75
2024/01/28 00:10:14;;;;;;;;;29.00;23.50;;;;;;;;5123522;27;62256;-75
2024/01/28 00:12:39;;;;;;;;;38.50;26.00;;;;;;;;5122619;27;62009;-75
2024/01/28 00:15:06;;;;;;;;;34.75;29.50;;;;;;;;5116642;27;61755;-75
2024/01/28 00:17:31;;;;;;;;;43.50;32.75;;;;;;;;5102635;27;61777;-75
2024/01/28 00:19:57;;;;;;;;;44.50;36.25;;;;;;;;5101446;27;61939;-75
2024/01/28 00:22:23;;;;;;;;;15.75;6.50;;;;;;;;5115643;27;61811;-75
2024/01/28 00:24:48;;;;;;;;;41.75;30.00;;;;;;;;5122681;27;62195;-75
2024/01/28 00:27:13;;;;;;;;;33.75;28.75;;;;;;;;5121068;27;62214;-75
2024/01/28 00:29:38;;;;;;;;;39.75;33.50;;;;;;;;5122113;27;61755;-75
2024/01/28 00:32:04;;;;;;;;;30.50;22.00;;;;;;;;5121859;27;61953;-75
2024/01/28 00:34:29;;;;;;;;;40.50;28.75;;;;;;;;5121833;27;61663;-76
2024/01/28 00:36:54;;;;;;;;;29.75;26.50;;;;;;;;5124363;27;61903;-75
2024/01/28 00:39:19;;;;;;;;;31.00;27.75;;;;;;;;5106348;27;61837;-75
2024/01/28 00:41:45;;;;;;;;;33.75;26.25;;;;;;;;5105902;27;61952;-75
2024/01/28 00:44:10;;;;;;;;;32.25;24.00;;;;;;;;5106849;27;61834;-76
2024/01/28 00:46:36;;;;;;;;;33.50;25.25;;;;;;;;5106545;27;61762;-74
2024/01/28 00:49:02;;;;;;;;;31.75;25.25;;;;;;;;5106985;27;61868;-76
2024/01/28 00:51:27;;;;;;;;;29.50;24.00;;;;;;;;5105435;27;61949;-75
2024/01/28 00:53:52;;;;;;;;;32.75;21.50;;;;;;;;5106727;27;61750;-75
2024/01/28 00:56:17;;;;;;;;;26.75;22.75;;;;;;;;5106655;27;62045;-75
2024/01/28 00:58:43;;;;;;;;;29.00;25.00;;;;;;;;5106605;27;61895;-75
2024/01/28 01:01:08;;;;;;;;;35.00;26.75;;;;;;;;5104542;27;62762;-75
2024/01/28 01:03:33;;;;;;;;;36.50;24.25;;;;;;;;5104718;27;61698;-75
2024/01/28 01:05:59;;;;;;;;;34.25;26.25;;;;;;;;5104369;27;62116;-75
2024/01/28 01:08:24;;;;;;;;;32.00;24.00;;;;;;;;5106421;27;61904;-75
2024/01/28 01:10:50;;;;;;;;;38.50;30.75;;;;;;;;5105313;27;62660;-75
2024/01/28 01:13:15;;;;;;;;;43.75;33.25;;;;;;;;5105367;27;61845;-75
2024/01/28 01:15:40;;;;;;;;;45.00;35.25;;;;;;;;5105376;27;61770;-75
2024/01/28 01:18:06;;;;;;;;;37.75;34.00;;;;;;;;5105637;27;61884;-75
2024/01/28 01:20:31;;;;;;;;;29.25;24.00;;;;;;;;5104331;27;61850;-75
2024/01/28 01:22:58;;;;;;;;;31.75;24.00;;;;;;;;5105450;27;61767;-74
2024/01/28 01:25:23;;;;;;;;;29.50;24.50;;;;;;;;5103904;27;62058;-75
2024/01/28 01:27:52;;;;;;;;;23.00;22.25;;;;;;;;5105054;27;61963;-75
2024/01/28 01:30:17;;;;;;;;;25.50;22.00;;;;;;;;5104389;27;61899;-75
2024/01/28 01:32:43;;;;;;;;;30.00;26.25;;;;;;;;5104947;27;61881;-76
2024/01/28 01:35:08;;;;;;;;;31.00;25.50;;;;;;;;5104955;27;61921;-75
2024/01/28 01:37:33;;;;;;;;;26.50;20.75;;;;;;;;5102384;27;61803;-75
2024/01/28 01:39:59;;;;;;;;;37.00;23.75;;;;;;;;5104595;27;61890;-75
2024/01/28 01:42:24;;;;;;;;;24.75;21.25;;;;;;;;5104936;27;61931;-75
2024/01/28 01:44:50;;;;;;;;;24.75;23.50;;;;;;;;5104727;27;61765;-75
2024/01/28 01:47:15;;;;;;;;;32.00;25.00;;;;;;;;5103816;27;61761;-75
2024/01/28 01:49:41;;;;;;;;;26.25;24.00;;;;;;;;5103392;27;61810;-75
2024/01/28 01:52:06;;;;;;;;;43.25;23.25;;;;;;;;5104893;27;61886;-75
2024/01/28 01:54:32;;;;;;;;;34.25;27.75;;;;;;;;5104923;27;62085;-75
2024/01/28 01:56:57;;;;;;;;;30.50;24.50;;;;;;;;5105273;27;61938;-75
2024/01/28 01:59:23;;;;;;;;;25.00;23.25;;;;;;;;5104069;27;61935;-75
2024/01/28 02:01:49;;;;;;;;;21.25;18.25;;;;;;;;5103914;27;61992;-75
2024/01/28 02:04:14;;;;;;;;;26.25;24.75;;;;;;;;5103462;27;61862;-75
2024/01/28 02:06:40;;;;;;;;;33.50;26.00;;;;;;;;5103367;27;61859;-75
2024/01/28 02:09:06;;;;;;;;;29.00;25.00;;;;;;;;5102595;27;63664;-75
2024/01/28 02:11:32;;;;;;;;;26.75;23.00;;;;;;;;5104925;27;62070;-75
2024/01/28 02:13:57;;;;;;;;;17.25;12.50;;;;;;;;5102925;27;61945;-75
2024/01/28 02:16:24;;;;;;;;;23.75;18.75;;;;;;;;5101605;27;62050;-74
2024/01/28 02:18:49;;;;;;;;;29.50;24.00;;;;;;;;5100727;27;63525;-75
2024/01/28 02:21:14;;;;;;;;;26.00;20.25;;;;;;;;5103042;27;61926;-75
2024/01/28 02:23:39;;;;;;;;;23.50;21.25;;;;;;;;5103294;27;61799;-75
2024/01/28 02:26:04;;;;;;;;;33.50;24.50;;;;;;;;5103774;27;61987;-75
2024/01/28 02:28:30;;;;;;;;;31.50;23.50;;;;;;;;5102639;27;61883;-75
2024/01/28 02:30:55;;;;;;;;;27.50;24.00;;;;;;;;5101675;27;61874;-74
2024/01/28 02:33:20;;;;;;;;;29.75;24.00;;;;;;;;5102230;27;61997;-75
2024/01/28 02:35:45;;;;;;;;;26.50;23.50;;;;;;;;5104274;27;61716;-75
2024/01/28 02:38:11;;;;;;;;;16.50;15.50;;;;;;;;5100952;27;62751;-75
2024/01/28 02:40:37;;;;;;;;;33.75;28.25;;;;;;;;5104313;27;61677;-75
2024/01/28 02:43:04;;;;;;;;;28.00;23.00;;;;;;;;5103746;27;61911;-75
2024/01/28 02:45:30;;;;;;;;;27.75;21.25;;;;;;;;5104227;27;61833;-75
2024/01/28 02:47:56;;;;;;;;;22.25;21.00;;;;;;;;5103090;27;61855;-75
2024/01/28 02:50:21;;;;;;;;;28.25;23.25;;;;;;;;5103999;27;61905;-75
2024/01/28 02:52:46;;;;;;;;;28.25;19.75;;;;;;;;5103842;27;62055;-75
2024/01/28 02:55:12;;;;;;;;;32.75;24.50;;;;;;;;5104316;27;62084;-75
2024/01/28 02:57:37;;;;;;;;;23.75;23.75;;;;;;;;5101319;27;63708;-75
2024/01/28 03:00:03;;;;;;;;;28.75;21.75;;;;;;;;5101456;27;62246;-75
2024/01/28 03:02:29;;;;;;;;;26.50;20.75;;;;;;;;5103821;27;61904;-75
2024/01/28 03:04:54;;;;;;;;;23.00;20.50;;;;;;;;5103854;27;61816;-75
2024/01/28 03:07:19;;;;;;;;;21.50;16.50;;;;;;;;5101739;27;63666;-75
2024/01/28 03:09:44;;;;;;;;;19.25;17.50;;;;;;;;5103480;27;61788;-75
2024/01/28 03:12:09;;;;;;;;;23.75;20.50;;;;;;;;5103721;27;61730;-75
2024/01/28 03:14:35;;;;;;;;;26.25;19.75;;;;;;;;5103596;27;61855;-75
2024/01/28 03:17:00;;;;;;;;;27.25;17.00;;;;;;;;5101396;27;63645;-75
2024/01/28 03:19:26;;;;;;;;;27.25;18.50;;;;;;;;5102058;27;61819;-75
2024/01/28 03:21:51;;;;;;;;;22.75;19.00;;;;;;;;5103533;27;61957;-75
2024/01/28 03:24:16;;;;;;;;;19.25;16.75;;;;;;;;5103826;27;61779;-75
2024/01/28 03:26:41;;;;;;;;;19.75;18.50;;;;;;;;5102721;27;61877;-75
2024/01/28 03:29:07;;;;;;;;;29.75;21.75;;;;;;;;5101383;27;61729;-75
2024/01/28 03:31:32;;;;;;;;;20.50;19.75;;;;;;;;5101399;27;61851;-75
2024/01/28 03:33:57;;;;;;;;;23.00;20.00;;;;;;;;5101840;27;61739;-75
2024/01/28 03:36:23;;;;;;;;;24.25;19.75;;;;;;;;5101342;27;64855;-75
2024/01/28 03:38:50;;;;;;;;;18.75;17.25;;;;;;;;5102794;27;62010;-75
2024/01/28 03:41:15;;;;;;;;;30.25;21.25;;;;;;;;5101870;27;62055;-75
2024/01/28 03:43:42;;;;;;;;;26.75;20.50;;;;;;;;5101402;27;61810;-75
2024/01/28 03:46:08;;;;;;;;;26.75;17.00;;;;;;;;5100961;27;64568;-75
2024/01/28 03:48:33;;;;;;;;;24.75;19.50;;;;;;;;5102929;27;61795;-75
2024/01/28 03:50:58;;;;;;;;;27.75;20.00;;;;;;;;5101605;27;61979;-75
2024/01/28 03:53:23;;;;;;;;;27.00;15.50;;;;;;;;5103332;27;61855;-75
2024/01/28 03:55:48;;;;;;;;;16.75;16.75;;;;;;;;5101063;27;63650;-75
2024/01/28 03:58:14;;;;;;;;;30.50;21.00;;;;;;;;5100944;27;62094;-75
2024/01/28 04:00:39;;;;;;;;;22.00;16.25;;;;;;;;5101975;27;61861;-75
2024/01/28 04:03:04;;;;;;;;;27.00;16.75;;;;;;;;5102717;27;61869;-75
2024/01/28 04:05:32;;;;;;;;;25.75;19.75;;;;;;;;5102490;27;61839;-75
2024/01/28 04:07:57;;;;;;;;;19.75;10.50;;;;;;;;5102577;27;61699;-75
2024/01/28 04:10:22;;;;;;;;;23.25;15.50;;;;;;;;5101722;27;61932;-75
2024/01/28 04:12:48;;;;;;;;;19.50;15.00;;;;;;;;5102576;27;62084;-75
2024/01/28 04:15:13;;;;;;;;;17.00;13.50;;;;;;;;5101973;27;61755;-75
2024/01/28 04:17:38;;;;;;;;;16.00;15.50;;;;;;;;5102993;27;62098;-75
2024/01/28 04:20:04;;;;;;;;;17.75;17.75;;;;;;;;5102623;27;62072;-75
2024/01/28 04:22:29;;;;;;;;;20.00;19.00;;;;;;;;5102807;27;61652;-75
2024/01/28 04:24:54;;;;;;;;;24.25;18.75;;;;;;;;5102066;27;61746;-75
2024/01/28 04:27:20;;;;;;;;;26.25;16.50;;;;;;;;5101908;27;61614;-75
2024/01/28 04:29:45;;;;;;;;;22.50;20.25;;;;;;;;5102189;27;62005;-75
2024/01/28 04:32:11;;;;;;;;;27.00;14.50;;;;;;;;5102438;27;61751;-75
2024/01/28 04:34:36;;;;;;;;;26.00;19.00;;;;;;;;5101810;27;62346;-75
2024/01/28 04:37:01;;;;;;;;;24.00;16.00;;;;;;;;5102368;27;61747;-75
2024/01/28 04:39:27;;;;;;;;;16.75;15.25;;;;;;;;5102601;27;61906;-75
2024/01/28 04:41:52;;;;;;;;;27.50;16.25;;;;;;;;5101911;27;61880;-75
2024/01/28 04:44:18;;;;;;;;;22.50;16.25;;;;;;;;5101443;27;62772;-75
2024/01/28 04:46:45;;;;;;;;;21.25;13.00;;;;;;;;5102272;27;61912;-75
2024/01/28 04:49:10;;;;;;;;;16.25;15.25;;;;;;;;5102139;27;61788;-75
2024/01/28 04:51:36;;;;;;;;;23.50;14.25;;;;;;;;5102493;27;61718;-75
2024/01/28 04:54:01;;;;;;;;;16.50;15.25;;;;;;;;5100303;27;64564;-75
2024/01/28 04:56:26;;;;;;;;;23.00;18.00;;;;;;;;5101806;27;61891;-75
2024/01/28 04:58:52;;;;;;;;;19.00;15.50;;;;;;;;5100849;27;61958;-75
2024/01/28 05:01:17;;;;;;;;;19.75;16.75;;;;;;;;5101018;27;62126;-75
2024/01/28 05:03:43;;;;;;;;;23.50;22.00;;;;;;;;5101433;27;62987;-75
2024/01/28 05:06:09;;;;;;;;;17.00;16.00;;;;;;;;5101956;27;61795;-75
2024/01/28 05:08:35;;;;;;;;;16.00;16.00;;;;;;;;5100194;27;61976;-75
2024/01/28 05:11:00;;;;;;;;;12.25;12.25;;;;;;;;5101717;27;61697;-75
2024/01/28 05:13:29;;;;;;;;;16.25;13.00;;;;;;;;5100813;27;61771;-75
2024/01/28 05:16:02;;;;;;;;;15.50;12.00;;;;;;;;5101441;27;61918;-75
2024/01/28 05:18:27;;;;;;;;;19.00;15.50;;;;;;;;5100284;27;62042;-75
2024/01/28 05:20:52;;;;;;;;;22.50;16.25;;;;;;;;5102060;27;61741;-75
2024/01/28 05:23:17;;;;;;;;;17.75;15.00;;;;;;;;5104666;27;62752;-75
2024/01/28 05:25:42;;;;;;;;;15.25;13.50;;;;;;;;5104654;27;61955;-75
2024/01/28 05:28:08;;;;;;;;;20.25;17.75;;;;;;;;5104381;27;62046;-75
2024/01/28 05:30:34;;;;;;;;;20.25;15.25;;;;;;;;5103602;27;61783;-75
2024/01/28 05:32:59;;;;;;;;;17.25;17.25;;;;;;;;5103202;27;63425;-75
2024/01/28 05:35:24;;;;;;;;;15.00;15.00;;;;;;;;5105362;27;62074;-75
2024/01/28 05:37:50;;;;;;;;;21.25;13.00;;;;;;;;5102776;27;61905;-75
2024/01/28 05:40:15;;;;;;;;;20.75;15.00;;;;;;;;5105208;27;62067;-75
2024/01/28 05:42:40;;;;;;;;;19.75;16.50;;;;;;;;5103860;27;61839;-75
2024/01/28 05:45:06;;;;;;;;;18.50;15.50;;;;;;;;5103591;27;61918;-75
2024/01/28 05:47:31;;;;;;;;;17.50;13.00;;;;;;;;5105224;27;61833;-75
2024/01/28 05:49:56;;;;;;;;;16.50;13.25;;;;;;;;5105435;27;61700;-75
2024/01/28 05:52:22;;;;;;;;;18.00;16.00;;;;;;;;5104327;27;62899;-75
2024/01/28 05:54:47;;;;;;;;;15.25;13.00;;;;;;;;5103371;27;61748;-75
2024/01/28 05:57:12;;;;;;;;;24.00;19.00;;;;;;;;5104775;27;61841;-75
2024/01/28 05:59:38;;;;;;;;;19.25;17.00;;;;;;;;5104342;27;62194;-75
2024/01/28 06:02:03;;;;;;;;;22.50;16.25;;;;;;;;5104544;27;61852;-75
2024/01/28 06:04:29;;;;;;;;;25.75;20.25;;;;;;;;5103408;27;61961;-75
2024/01/28 06:06:54;;;;;;;;;16.50;16.00;;;;;;;;5104916;27;61959;-75
2024/01/28 06:09:19;;;;;;;;;21.00;15.50;;;;;;;;5104669;27;61867;-75
2024/01/28 06:11:45;;;;;;;;;17.25;16.25;;;;;;;;5104157;27;62938;-75
2024/01/28 06:14:11;;;;;;;;;20.75;16.50;;;;;;;;5104607;27;61937;-75
2024/01/28 06:16:36;;;;;;;;;16.25;15.25;;;;;;;;5104578;27;62404;-75
2024/01/28 06:19:01;;;;;;;;;24.50;17.25;;;;;;;;5104649;27;61767;-75
2024/01/28 06:21:26;;;;;;;;;19.75;16.50;;;;;;;;5102650;27;64705;-75
2024/01/28 06:23:52;;;;;;;;;15.00;12.75;;;;;;;;5103838;27;61953;-75
2024/01/28 06:26:18;;;;;;;;;21.00;15.00;;;;;;;;5104525;27;61750;-75
2024/01/28 06:28:45;;;;;;;;;20.25;18.50;;;;;;;;5097392;27;61809;-75
2024/01/28 06:31:10;;;;;;;;;16.00;13.50;;;;;;;;5083061;27;61872;-75
2024/01/28 06:33:35;;;;;;;;;12.75;11.25;;;;;;;;5081822;28;61736;-75
2024/01/28 06:36:01;;;;;;;;;14.75;12.25;;;;;;;;5112688;27;61922;-75
2024/01/28 06:38:26;;;;;;;;;17.50;12.50;;;;;;;;5108125;27;61862;-75
2024/01/28 06:40:51;;;;;;;;;14.00;12.50;;;;;;;;5103199;27;62928;-75
2024/01/28 06:43:16;;;;;;;;;15.50;14.00;;;;;;;;5103916;27;61932;-75
2024/01/28 06:45:42;;;;;;;;;23.25;14.00;;;;;;;;5104357;27;61866;-75
2024/01/28 06:48:07;;;;;;;;;15.50;12.00;;;;;;;;5104334;27;62062;-75
2024/01/28 06:50:32;;;;;;;;;16.75;11.50;;;;;;;;5102257;27;63598;-75
2024/01/28 06:53:01;;;;;;;;;16.75;14.00;;;;;;;;5103552;27;61799;-75
2024/01/28 06:55:26;;;;;;;;;11.25;9.25;;;;;;;;5104442;27;61917;-75
2024/01/28 06:57:51;;;;;;;;;17.25;13.75;;;;;;;;5103859;27;61764;-75
2024/01/28 07:00:16;;;;;;;;;18.00;12.75;;;;;;;;5101484;27;63719;-75
2024/01/28 07:02:44;;;;;;;;;19.75;15.75;;;;;;;;5103818;27;62125;-75
2024/01/28 07:05:11;;;;;;;;;15.75;15.75;;;;;;;;5103866;27;61774;-75
2024/01/28 07:07:37;;;;;;;;;13.25;12.25;;;;;;;;5106128;27;61881;-75
2024/01/28 07:10:02;;;;;;;;;16.75;12.75;;;;;;;;5122324;27;63696;-75
2024/01/28 07:12:28;;;;;;;;;15.00;11.00;;;;;;;;5119699;27;61807;-75
2024/01/28 07:14:53;;;;;;;;;18.00;8.75;;;;;;;;5102450;27;61744;-76
2024/01/28 07:17:18;;;;;;;;;14.50;8.75;;;;;;;;5104116;27;61775;-77
2024/01/28 07:19:43;;;;;;;;;20.75;13.25;;;;;;;;5103297;27;62117;-77
2024/01/28 07:22:11;;;;;;;;;14.00;11.00;;;;;;;;5101889;27;61860;-78
2024/01/28 07:24:36;;;;;;;;;15.50;14.50;;;;;;;;5103878;27;61801;-78
2024/01/28 07:27:01;;;;;;;;;14.25;12.75;;;;;;;;5103403;27;62872;-78
2024/01/28 07:29:27;;;;;;;;;19.75;14.75;;;;;;;;5100607;27;63705;-80
2024/01/28 07:31:52;;;;;;;;;20.00;13.75;;;;;;;;5102753;27;61875;-78
2024/01/28 07:34:20;;;;;;;;;18.25;14.50;;;;;;;;5102930;27;61879;-78
2024/01/28 07:36:45;;;;;;;;;16.00;12.75;;;;;;;;5101667;27;61850;-77
2024/01/28 07:39:12;;;;;;;;;16.00;14.50;;;;;;;;5100664;27;63457;-77
2024/01/28 07:41:38;;;;;;;;;17.00;11.75;;;;;;;;5113592;27;62261;-77
2024/01/28 07:44:03;;;;;;;;;11.00;10.50;;;;;;;;5123426;27;61785;-79
2024/01/28 07:46:29;;;;;;;;;14.75;9.50;;;;;;;;5101134;27;62069;-77
2024/01/28 07:48:54;;;;;;;;;13.75;11.75;;;;;;;;5099457;27;61955;-77
2024/01/28 07:51:19;;;;;;;;;10.00;8.75;;;;;;;;5100873;27;62582;-77
2024/01/28 07:53:44;;;;;;;;;18.75;14.75;;;;;;;;5101786;27;61760;-77
2024/01/28 07:56:09;;;;;;;;;13.00;11.75;;;;;;;;5103066;27;61808;-77
2024/01/28 07:58:35;;;;;;;;;24.50;15.25;;;;;;;;5102153;27;62949;-76
2024/01/28 08:01:01;;;;;;;;;8.50;5.00;;;;;;;;5102424;27;62013;-75
2024/01/28 08:03:26;;;;;;;;;17.75;16.00;;;;;;;;5102827;27;61966;-75
2024/01/28 08:05:51;;;;;;;;;16.00;11.75;;;;;;;;5101355;27;61800;-75
2024/01/28 08:08:16;;;;;;;;;15.25;14.75;;;;;;;;5101549;27;62896;-75
2024/01/28 08:10:41;;;;;;;;;19.25;15.75;;;;;;;;5102612;27;61679;-78
2024/01/28 08:13:07;;;;;;;;;22.00;16.75;;;;;;;;5101108;27;62083;-78
2024/01/28 08:15:32;;;;;;;;;15.75;9.00;;;;;;;;5115794;27;61704;-73
2024/01/28 08:17:57;;;;;;;;;20.00;18.00;;;;;;;;5120904;27;63608;-79
2024/01/28 08:20:22;;;;;;;;;20.00;17.75;;;;;;;;5120901;27;62116;-81
2024/01/28 08:22:50;;;;;;;;;24.25;16.75;;;;;;;;5121940;27;61983;-74
2024/01/28 08:25:15;;;;;;;;;16.25;16.00;;;;;;;;5123228;27;62049;-74
2024/01/28 08:27:40;;;;;;;;;27.25;20.50;;;;;;;;5122397;27;61750;-74
2024/01/28 09:11:18;;;;;;;;;29.00;24.25;;;;;-146.67;43.09;76798.47;5095485;27;62317;-77
2024/01/28 09:13:43;;;;;;;;;30.50;24.00;;;;;-146.67;42.62;76742.56;5078525;27;61975;-77
2024/01/28 09:16:08;;;;;;;;;29.75;25.00;;;;;-146.67;42.15;76700.59;5079216;27;61981;-76
2024/01/28 09:18:34;;;;;;;;;19.00;17.25;;;;;-146.67;41.67;76682.63;5078390;27;62126;-77
2024/01/28 09:20:59;;;;;;;;;29.50;27.75;;;;;-146.67;41.66;76664.66;5077901;28;61965;-77
2024/01/28 09:23:25;;;;;;;;;33.75;31.75;;;;;-146.67;41.43;76646.66;5079322;27;61968;-77
2024/01/28 09:25:50;;;;;;;;;31.50;28.25;;;;;-146.67;41.26;76616.69;5078799;27;61831;-77
2024/01/28 09:28:15;;;;;;;;;33.75;30.25;;;;;-146.67;41.07;76604.72;5076594;28;63745;-77
2024/01/28 09:30:41;;;;;;;;;42.25;29.50;;;;;-146.67;41.09;76580.75;5067585;28;61867;-76
2024/01/28 09:33:10;;;;;;;;;32.75;23.75;;;;;-146.67;40.91;76576.75;5077613;28;61953;-77
2024/01/28 09:35:35;;;;;;;;;28.25;25.25;;;;;-146.67;40.89;76574.75;5078686;27;62071;-77
2024/01/28 09:38:01;;;;;;;;;16.75;15.50;;;;;-146.67;40.84;76570.75;5076953;28;64518;-77
2024/01/28 09:40:28;;;;;;;;;16.75;15.50;;;;;-146.67;40.98;76578.75;5078314;27;61758;-77
2024/01/28 09:42:59;;;;;;;;;21.25;16.75;;;;;-146.67;40.70;76560.78;5076226;28;61742;-77
2024/01/28 09:45:26;;;;;;;;;22.00;17.50;;;;;-146.67;40.47;76530.81;5078062;27;61798;-77
2024/01/28 09:47:52;;;;;;;;;19.00;16.50;;;;;-146.67;40.33;76516.84;5075537;28;63845;-77
2024/01/28 09:50:18;;;;;;;;;15.25;14.25;;;;;-146.67;40.28;76512.84;5076547;28;62092;-77
2024/01/28 09:52:45;;;;;;;;;21.75;14.00;;;;;-146.67;40.04;76482.88;5078048;28;62012;-76
2024/01/28 09:55:11;;;;;;;;;18.25;17.75;;;;;-146.67;39.83;76450.91;5076747;28;61873;-77
2024/01/28 09:57:38;;;;;;;;;20.00;17.25;;;;;-146.67;39.76;76460.91;5077457;27;61935;-76
2024/01/28 10:00:05;;;;;;;;;21.00;13.75;;;;;-146.67;39.79;76456.91;5076867;27;62188;-74
2024/01/28 10:02:30;;;;;;;;;28.00;21.50;;;;;-146.67;39.80;76444.91;5076914;28;61959;-74
2024/01/28 10:04:56;;;;;;;;;22.25;17.50;;;;;-146.67;39.75;76432.94;5076844;28;62218;-75
2024/01/28 10:07:22;;;;;;;;;18.25;16.00;;;;;-146.67;39.63;76416.97;5076733;28;63169;-74
2024/01/28 10:09:50;;;;;;;;;19.00;16.50;;;;;-146.67;39.35;76406.97;5075483;28;61988;-74
2024/01/28 10:12:15;;;;;;;;;18.25;17.00;;;;;-146.67;39.16;76395.00;5063252;27;61698;-74
2024/01/28 10:14:49;;;;;;;;;15.00;14.00;;;;;-146.67;39.01;76387.00;5062050;28;62354;-74
2024/01/28 10:17:15;;;;;;;;;17.00;13.25;;;;;-146.67;39.04;76371.03;5059991;28;61994;-75
2024/01/28 10:19:43;;;;;;;;;18.75;15.50;;;;;-146.67;38.82;76371.03;5062927;28;62224;-74
2024/01/28 10:22:08;;;;;;;;;19.00;14.00;;;;;-146.67;38.96;76361.03;5063870;28;61718;-75
2024/01/28 10:24:34;;;;;;;;;20.50;15.00;;;;;-146.67;38.67;76343.06;5062944;28;61787;-75
2024/01/28 10:26:59;;;;;;;;;21.75;17.50;;;;;-146.67;38.77;76335.06;5063349;28;62033;-74
2024/01/28 10:29:27;;;;;;;;;19.00;18.50;;;;;-146.67;38.63;76329.06;5062060;28;61791;-74
2024/01/28 10:31:52;;;;;;;;;23.75;17.75;;;;;-146.67;38.48;76317.09;5060017;28;61965;-75
2024/01/28 10:34:18;;;;;;;;;20.75;15.50;;;;;-146.67;38.31;76315.09;5064633;28;61836;-73
2024/01/28 10:36:47;;;;;;;;;20.25;15.00;;;;;-146.67;38.11;76287.13;5056867;28;61945;-75
2024/01/28 10:39:14;;;;;;;;;23.75;22.25;;;;;-146.67;38.32;76279.13;5042899;28;61850;-75
2024/01/28 10:41:43;;;;;;;;;26.00;19.75;;;;;-146.67;38.14;76283.13;5044322;28;61763;-75
2024/01/28 10:44:09;;;;;;;;;20.75;16.50;;;;;-146.67;37.95;76281.13;5061064;28;61933;-76
2024/01/28 10:46:38;;;;;;;;;15.00;15.00;;;;;-146.67;38.06;76265.16;5082848;28;63469;-74
2024/01/28 10:49:06;;;;;;;;;20.50;16.00;;;;;-146.67;38.13;76249.19;5070231;28;61953;-75
2024/01/28 10:51:33;;;;;;;;;19.25;15.50;;;;;-146.67;38.28;76245.19;5044183;28;61974;-75
2024/01/28 10:54:01;;;;;;;;;17.00;14.50;;;;;-146.67;37.74;76229.22;5044258;28;61827;-76
2024/01/28 10:56:27;;;;;;;;;18.00;15.00;;;;;-146.67;37.82;76213.22;5063770;28;63567;-75
2024/01/28 10:58:52;;;;;;;;;25.00;19.25;;;;;-146.67;37.59;76209.22;5084007;27;61947;-74
2024/01/28 11:01:18;;;;;;;;;21.25;14.75;;;;;-146.67;37.78;76207.25;5066614;27;62365;-74
2024/01/28 11:03:45;;;;;;;;;21.50;18.00;;;;;-146.67;37.47;76195.25;5063564;28;62171;-74
2024/01/28 11:06:10;;;;;;;;;21.25;16.00;;;;;-146.67;37.41;76203.25;5057715;28;64889;-75
2024/01/28 11:08:36;;;;;;;;;19.50;16.50;;;;;-146.67;37.60;76173.28;5062860;28;61765;-75
2024/01/28 11:11:01;;;;;;;;;16.00;14.75;;;;;-146.67;37.52;76195.25;5062817;28;61950;-75
2024/01/28 11:13:27;;;;;;;;;22.50;18.50;;;;;-146.67;37.58;76181.28;5061772;28;61937;-74
2024/01/28 11:15:54;;;;;;;;;26.50;18.75;;;;;-146.67;37.68;76177.28;5061375;28;65019;-75
2024/01/28 11:18:28;;;;;;;;;27.25;22.50;;;;;-146.67;37.54;76165.28;5061004;28;61932;-74
2024/01/28 11:20:53;;;;;;;;;24.50;21.00;;;;;-146.67;37.30;76139.31;5061561;28;61768;-75
2024/01/28 11:23:19;;;;;;;;;21.50;16.25;;;;;-146.67;37.10;76119.34;5061870;28;61831;-76
2024/01/28 11:25:45;;;;;;;;;22.75;20.00;;;;;-146.67;37.03;76097.38;5062428;28;62904;-75
2024/01/28 11:28:14;;;;;;;;;24.25;21.75;;;;;-146.67;36.93;76077.41;5062509;28;63029;-75
2024/01/28 11:30:40;;;;;;;;;14.75;14.75;;;;;-146.67;36.86;76069.44;5062429;28;61813;-75
2024/01/28 11:33:10;;;;;;;;;20.75;17.00;;;;;-146.67;36.86;76053.44;5062796;28;62047;-75
2024/01/28 11:35:37;;;;;;;;;25.50;18.25;;;;;-146.67;36.54;76039.47;5062034;28;62107;-75
2024/01/28 11:38:06;;;;;;;;;21.00;17.25;;;;;-146.67;36.63;76023.50;5061381;28;62012;-75
2024/01/28 11:40:37;;;;;;;;;19.75;18.25;;;;;-146.67;36.59;76011.50;5060987;28;62018;-75
2024/01/28 11:43:05;;;;;;;;;30.75;17.00;;;;;-146.67;36.55;75999.53;5062509;28;61921;-75
2024/01/28 11:45:31;;;;;;;;;18.25;16.75;;;;;-146.67;36.43;75977.56;5060572;28;63617;-75
2024/01/28 11:47:57;;;;;;;;;21.00;19.75;;;;;-146.67;36.46;75973.56;5062420;28;62049;-75
2024/01/28 11:50:22;;;;;;;;;23.75;18.00;;;;;-146.67;36.36;75969.56;5061952;28;61949;-75
2024/01/28 11:52:47;;;;;;;;;23.75;19.25;;;;;-146.67;36.20;75947.59;5061916;28;61849;-75
2024/01/28 11:55:15;;;;;;;;;22.25;18.00;;;;;-146.67;36.28;75927.63;5061379;28;62886;-75
2024/01/28 11:57:43;;;;;;;;;13.50;8.50;;;;;-146.67;36.65;75929.63;5061736;28;62003;-72
2024/01/28 12:00:13;;;;;;;;;28.50;20.50;;;;;-146.67;36.31;75925.63;5060305;28;61862;-72
2024/01/28 12:02:42;;;;;;;;;26.00;14.00;;;;;-146.67;36.34;75917.63;5061556;28;61952;-76
2024/01/28 12:05:08;;;;;;;;;22.50;19.00;;;;;-146.67;36.37;75895.66;5060974;28;62002;-74
2024/01/28 12:07:37;;;;;;;;;22.75;21.00;;;;;-146.67;35.63;75865.72;5061776;28;61968;-75
2024/01/28 12:10:08;;;;;;;;;22.25;18.00;;;;;-146.67;35.67;75869.72;5063526;28;61937;-75
2024/01/28 12:12:37;;;;;;;;;22.25;19.75;;;;;-146.67;35.64;75837.75;5058572;28;62175;-75
2024/01/28 12:15:04;;;;;;;;;29.00;21.25;;;;;-146.67;35.42;75815.78;5059687;28;63766;-75
2024/01/28 12:17:37;;;;;;;;;21.25;19.75;;;;;-146.67;35.28;75801.81;5059008;28;61831;-74
2024/01/28 12:20:03;;;;;;;;;25.25;21.25;;;;;-146.67;35.35;75787.81;5061988;28;61777;-75
2024/01/28 12:22:39;;;;;;;;;26.50;20.50;;;;;-146.67;35.19;75793.81;5063175;28;61835;-75
2024/01/28 12:25:11;;;;;;;;;29.25;21.50;;;;;-146.67;35.49;75789.81;5062068;28;62982;-76
2024/01/28 12:27:38;;;;;;;;;37.00;22.00;;;;;-146.67;35.30;75767.84;5062935;28;61909;-76
2024/01/28 12:30:09;;;;;;;;;29.00;21.75;;;;;-146.67;35.18;75751.88;5061170;28;62008;-74
2024/01/28 12:32:37;;;;;;;;;22.75;21.00;;;;;-146.67;34.85;75743.88;5061663;28;61875;-74
2024/01/28 12:35:07;;;;;;;;;26.00;23.75;;;;;-146.67;34.83;75745.88;5061925;28;61916;-74
2024/01/28 12:37:38;;;;;;;;;32.00;23.50;;;;;-146.67;35.06;75737.91;5066230;27;61967;-74
2024/01/28 12:40:06;;;;;;;;;21.25;18.75;;;;;-146.67;35.18;75735.91;5069909;28;61905;-74
2024/01/28 12:42:34;;;;;;;;;26.50;24.00;;;;;-146.67;35.10;75725.91;5068803;27;61894;-77
2024/01/28 12:44:59;;;;;;;;;32.25;27.50;;;;;-146.67;35.17;75719.94;5060669;28;63748;-77
2024/01/28 12:47:24;;;;;;;;;23.25;23.25;;;;;-146.67;35.14;75715.94;5061009;28;62060;-77
2024/01/28 12:49:50;;;;;;;;;38.75;29.75;;;;;-146.67;35.27;75709.94;5057632;28;61988;-75
2024/01/28 12:52:15;;;;;;;;;33.25;31.00;;;;;-146.67;34.94;75705.94;5061044;28;62070;-77
2024/01/28 12:54:41;;;;;;;;;34.50;28.75;;;;;-146.67;34.97;75703.94;5049555;28;63814;-76
2024/01/28 12:57:06;;;;;;;;;33.75;29.75;;;;;-146.67;35.03;75695.97;5059774;28;61925;-75
2024/01/28 12:59:32;;;;;;;;;26.75;25.00;;;;;-146.67;35.01;75687.97;5059760;28;62012;-77
2024/01/28 13:01:57;;;;;;;;;29.25;25.25;;;;;-146.67;34.85;75668.00;5058904;28;62016;-76
2024/01/28 13:04:23;;;;;;;;;34.00;27.50;;;;;-146.67;34.84;75658.03;5059205;28;64932;-76
2024/01/28 13:06:48;;;;;;;;;33.75;27.25;;;;;-146.67;34.77;75652.03;5061287;28;63093;-78
2024/01/28 13:09:14;;;;;;;;;35.75;27.00;;;;;-146.67;34.81;75650.03;5059848;28;61869;-77
2024/01/28 13:11:40;;;;;;;;;32.25;25.00;;;;;-146.67;34.54;75642.03;5057738;28;61822;-77
2024/01/28 13:14:05;;;;;;;;;34.50;22.75;;;;;-146.67;34.46;75618.06;5059235;28;61818;-77
2024/01/28 13:16:31;;;;;;;;;34.75;31.25;;;;;-146.67;34.65;75602.09;5060917;28;61843;-76
2024/01/28 13:18:56;;;;;;;;;37.00;26.75;;;;;-146.67;34.53;75590.13;5059483;28;61786;-78
2024/01/28 13:21:22;;;;;;;;;35.25;30.75;;;;;-146.67;34.42;75560.16;5060018;28;62053;-77
2024/01/28 13:23:47;;;;;;;;;34.75;29.25;;;;;-146.67;34.33;75552.19;5058714;28;63568;-76
2024/01/28 13:26:13;;;;;;;;;31.75;26.25;;;;;-146.67;34.31;75534.19;5060026;28;61739;-77
2024/01/28 13:28:38;;;;;;;;;21.75;18.50;;;;;-146.67;33.93;75528.22;5059748;28;61846;-78
2024/01/28 13:31:04;;;;;;;;;32.50;27.25;;;;;-146.67;34.15;75520.22;5059716;28;62067;-79
2024/01/28 13:33:30;;;;;;;;;30.00;24.00;;;;;-146.67;34.11;75508.25;5058123;28;63514;-77